Aeroporto :
LOGIN :

Iscrizione | Disclaimer

   EN    FR    IT 

 










Sommario :    VFR   VFR Marginale   IFR   IFR Intensivo   IFR Molto Intensivo
Visibilità : 
Base nubi : 
>= 8 km
>= 3000ft
5 / 8 km
1000 / 3000 ft
1500m / 5 km
500 / 1000 ft
800 / 1500m
200 / 500 ft
< 800m
< 200 ft
Simboli :   Temporali  Nebbia  Neve Forte  Precipitazioni Forti  Vento > 20 kt
SIGMETs :   Varie  Temporali  Ghiacco  Turbolenza  Onda orograficha  Ceneri Vulcaniche






- Altitudine del aeroporto : 32 ft
- Codice IATA : LKZ


EGUL - RAF Lakenheath

ULTIMO METAR :
  • 271256Z AUTO 00000KT 9999 SCT040 SCT055 22/12 A3056 RMK AO2 SLP352 T02180118 $

METARs OBSOLETI :
  • 271156Z 30007KT 9999 BKN040 BKN160 21/12 A3057 RMK SLPNO WIND/ALSTG ESTMD
  • 271056Z AUTO 31005KT 9999 BKN041 20/11 A3057 RMK AO2 SLP355 T02040108 $

TAF TAF EGUL
Valido dal 27 a 06 ore il 28 a 12 ore UTC


270600Z 2706/2812 18006KT 9999 BKN040 QNH3057INS
BECMG 2712/2713 30009KT 9999 BKN030 BKN120 QNH3054INS
BECMG 2802/2803 08006KT 8000 BR SCT050 QNH3059INS
BECMG 2808/2809 12009KT 9999 NSW FEW040 QNH3055INS TX21/2715Z TN09/2803Z



MetMap, La meteo Aeronautica in un colpo d'occhio ! - Copyright ORBIFLY Dicembre 2007 - Disclaimer

ORBIFLY MET'MAP TEAM :

Programmazione e sviluppo : Alexandra Zaïnal
Concezione : Baudouin d'Aumeries
Aiuto per la programmazione : Marc-Olivier Méhu
Supporto tecnico e logistico : Manuel Goepfert
Aiuto per la traduzione : Arnaldo La Scala

Contatto : metmap@orbifly.com




FONTI E CREDITI :

   NOAA